sensor_id;sensor_type;location;lat;lon;timestamp;temperature;humidity
9095;DHT22;4583;49.796;9.902;2022-10-26T00:06:55;12.20;99.90
9095;DHT22;4583;49.796;9.902;2022-10-26T00:16:57;12.20;99.90
9095;DHT22;4583;49.796;9.902;2022-10-26T00:26:59;12.30;99.90
9095;DHT22;4583;49.796;9.902;2022-10-26T00:37:00;12.30;99.90
9095;DHT22;4583;49.796;9.902;2022-10-26T00:47:03;12.30;99.90
9095;DHT22;4583;49.796;9.902;2022-10-26T00:57:05;12.40;99.90
9095;DHT22;4583;49.796;9.902;2022-10-26T01:07:07;12.40;99.90
9095;DHT22;4583;49.796;9.902;2022-10-26T01:27:36;12.30;99.90
9095;DHT22;4583;49.796;9.902;2022-10-26T01:37:46;12.30;99.90
9095;DHT22;4583;49.796;9.902;2022-10-26T01:47:51;12.30;99.90
9095;DHT22;4583;49.796;9.902;2022-10-26T01:58:02;12.50;99.90
9095;DHT22;4583;49.796;9.902;2022-10-26T02:18:36;12.50;99.90
9095;DHT22;4583;49.796;9.902;2022-10-26T02:28:43;12.30;99.90
9095;DHT22;4583;49.796;9.902;2022-10-26T02:38:47;12.30;99.90
9095;DHT22;4583;49.796;9.902;2022-10-26T02:48:49;12.40;99.90
9095;DHT22;4583;49.796;9.902;2022-10-26T02:58:54;12.40;99.90
9095;DHT22;4583;49.796;9.902;2022-10-26T03:08:57;12.50;99.90
9095;DHT22;4583;49.796;9.902;2022-10-26T03:18:59;12.60;99.90
9095;DHT22;4583;49.796;9.902;2022-10-26T03:29:01;12.50;99.90
9095;DHT22;4583;49.796;9.902;2022-10-26T03:39:02;12.60;99.90
9095;DHT22;4583;49.796;9.902;2022-10-26T03:49:04;12.60;99.90
9095;DHT22;4583;49.796;9.902;2022-10-26T03:59:06;12.60;99.90
9095;DHT22;4583;49.796;9.902;2022-10-26T04:09:07;12.50;99.90
9095;DHT22;4583;49.796;9.902;2022-10-26T04:19:09;12.50;99.90
9095;DHT22;4583;49.796;9.902;2022-10-26T04:29:11;12.50;99.90
9095;DHT22;4583;49.796;9.902;2022-10-26T04:39:14;12.50;99.90
9095;DHT22;4583;49.796;9.902;2022-10-26T04:49:15;12.50;99.90
9095;DHT22;4583;49.796;9.902;2022-10-26T04:59:17;12.60;99.90
9095;DHT22;4583;49.796;9.902;2022-10-26T05:09:19;12.60;99.90
9095;DHT22;4583;49.796;9.902;2022-10-26T05:19:20;12.70;99.90
9095;DHT22;4583;49.796;9.902;2022-10-26T05:29:22;12.70;99.90
9095;DHT22;4583;49.796;9.902;2022-10-26T05:39:24;12.60;99.90
9095;DHT22;4583;49.796;9.902;2022-10-26T05:49:25;12.60;99.90
9095;DHT22;4583;49.796;9.902;2022-10-26T05:59:27;12.50;99.90
9095;DHT22;4583;49.796;9.902;2022-10-26T06:09:31;12.50;99.90
9095;DHT22;4583;49.796;9.902;2022-10-26T06:30:07;12.60;99.90
9095;DHT22;4583;49.796;9.902;2022-10-26T06:40:14;12.50;99.90
9095;DHT22;4583;49.796;9.902;2022-10-26T07:00:39;12.60;99.90
9095;DHT22;4583;49.796;9.902;2022-10-26T07:10:41;12.70;99.90
9095;DHT22;4583;49.796;9.902;2022-10-26T07:20:43;12.70;99.90
9095;DHT22;4583;49.796;9.902;2022-10-26T07:30:45;12.70;99.90
9095;DHT22;4583;49.796;9.902;2022-10-26T07:40:47;12.70;99.90
9095;DHT22;4583;49.796;9.902;2022-10-26T07:50:50;12.80;99.90
9095;DHT22;4583;49.796;9.902;2022-10-26T08:00:53;13.00;99.90
9095;DHT22;4583;49.796;9.902;2022-10-26T08:10:54;13.00;99.90
9095;DHT22;4583;49.796;9.902;2022-10-26T08:21:02;13.00;99.90
9095;DHT22;4583;49.796;9.902;2022-10-26T08:31:12;13.10;99.90
9095;DHT22;4583;49.796;9.902;2022-10-26T08:41:14;13.30;99.90
9095;DHT22;4583;49.796;9.902;2022-10-26T08:51:19;13.50;99.90
9095;DHT22;4583;49.796;9.902;2022-10-26T09:01:22;13.60;99.90
9095;DHT22;4583;49.796;9.902;2022-10-26T09:22:06;14.00;99.90
9095;DHT22;4583;49.796;9.902;2022-10-26T09:32:40;14.50;99.90
9095;DHT22;4583;49.796;9.902;2022-10-26T09:52:47;15.20;99.90
9095;DHT22;4583;49.796;9.902;2022-10-26T10:02:52;15.20;99.90
9095;DHT22;4583;49.796;9.902;2022-10-26T10:12:54;15.30;99.90
9095;DHT22;4583;49.796;9.902;2022-10-26T10:23:00;15.40;99.90
9095;DHT22;4583;49.796;9.902;2022-10-26T10:33:09;15.50;99.90
9095;DHT22;4583;49.796;9.902;2022-10-26T10:43:12;15.80;99.90
9095;DHT22;4583;49.796;9.902;2022-10-26T10:53:24;15.80;99.90
9095;DHT22;4583;49.796;9.902;2022-10-26T11:03:56;15.90;99.90
9095;DHT22;4583;49.796;9.902;2022-10-26T11:14:25;16.00;99.90
9095;DHT22;4583;49.796;9.902;2022-10-26T11:24:46;16.30;99.90
9095;DHT22;4583;49.796;9.902;2022-10-26T11:45:33;17.00;99.90
9095;DHT22;4583;49.796;9.902;2022-10-26T11:55:37;17.40;99.90
9095;DHT22;4583;49.796;9.902;2022-10-26T12:46:56;19.20;99.90
9095;DHT22;4583;49.796;9.902;2022-10-26T13:07:23;19.40;99.90
9095;DHT22;4583;49.796;9.902;2022-10-26T13:17:28;19.50;99.60
9095;DHT22;4583;49.796;9.902;2022-10-26T13:37:35;19.70;99.20
9095;DHT22;4583;49.796;9.902;2022-10-26T13:47:48;19.80;99.10
9095;DHT22;4583;49.796;9.902;2022-10-26T14:08:15;19.70;98.50
9095;DHT22;4583;49.796;9.902;2022-10-26T14:18:21;19.50;98.60
9095;DHT22;4583;49.796;9.902;2022-10-26T14:28:27;19.40;98.70
9095;DHT22;4583;49.796;9.902;2022-10-26T14:38:35;19.40;98.90
9095;DHT22;4583;49.796;9.902;2022-10-26T14:48:50;19.30;99.00
9095;DHT22;4583;49.796;9.902;2022-10-26T14:58:52;19.20;98.90
9095;DHT22;4583;49.796;9.902;2022-10-26T15:08:58;19.20;99.10
9095;DHT22;4583;49.796;9.902;2022-10-26T15:19:12;19.20;99.40
9095;DHT22;4583;49.796;9.902;2022-10-26T15:39:37;19.20;99.20
9095;DHT22;4583;49.796;9.902;2022-10-26T15:49:38;19.00;99.40
9095;DHT22;4583;49.796;9.902;2022-10-26T15:59:40;18.70;99.90
9095;DHT22;4583;49.796;9.902;2022-10-26T16:09:42;18.50;99.90
9095;DHT22;4583;49.796;9.902;2022-10-26T16:19:46;18.40;99.90
9095;DHT22;4583;49.796;9.902;2022-10-26T16:29:48;18.30;99.90
9095;DHT22;4583;49.796;9.902;2022-10-26T16:39:49;18.20;99.90
9095;DHT22;4583;49.796;9.902;2022-10-26T16:49:51;18.10;99.90
9095;DHT22;4583;49.796;9.902;2022-10-26T16:59:52;17.90;99.90
9095;DHT22;4583;49.796;9.902;2022-10-26T17:09:54;17.90;99.90
9095;DHT22;4583;49.796;9.902;2022-10-26T17:19:56;17.80;99.90
9095;DHT22;4583;49.796;9.902;2022-10-26T17:29:58;17.60;99.90
9095;DHT22;4583;49.796;9.902;2022-10-26T17:39:59;17.40;99.90
9095;DHT22;4583;49.796;9.902;2022-10-26T17:50:02;17.20;99.90
9095;DHT22;4583;49.796;9.902;2022-10-26T18:00:05;16.90;99.90
9095;DHT22;4583;49.796;9.902;2022-10-26T18:10:07;16.80;99.90
9095;DHT22;4583;49.796;9.902;2022-10-26T18:20:29;16.50;99.90
9095;DHT22;4583;49.796;9.902;2022-10-26T18:30:32;16.30;99.90
9095;DHT22;4583;49.796;9.902;2022-10-26T18:40:34;16.10;99.90
9095;DHT22;4583;49.796;9.902;2022-10-26T18:50:36;16.00;99.90
9095;DHT22;4583;49.796;9.902;2022-10-26T19:00:38;15.80;99.90
9095;DHT22;4583;49.796;9.902;2022-10-26T19:10:40;15.70;99.90
9095;DHT22;4583;49.796;9.902;2022-10-26T19:20:42;15.50;99.90
9095;DHT22;4583;49.796;9.902;2022-10-26T19:30:48;15.50;99.90
9095;DHT22;4583;49.796;9.902;2022-10-26T19:40:56;15.30;99.90
9095;DHT22;4583;49.796;9.902;2022-10-26T19:50:58;15.20;99.90
9095;DHT22;4583;49.796;9.902;2022-10-26T20:01:02;15.10;99.90
9095;DHT22;4583;49.796;9.902;2022-10-26T20:11:04;15.00;99.90
9095;DHT22;4583;49.796;9.902;2022-10-26T20:21:12;14.90;99.90
9095;DHT22;4583;49.796;9.902;2022-10-26T20:31:17;14.70;99.90
9095;DHT22;4583;49.796;9.902;2022-10-26T20:41:19;14.60;99.90
9095;DHT22;4583;49.796;9.902;2022-10-26T21:02:27;14.50;99.90
9095;DHT22;4583;49.796;9.902;2022-10-26T21:12:29;14.20;99.90
9095;DHT22;4583;49.796;9.902;2022-10-26T21:22:31;14.20;99.90
9095;DHT22;4583;49.796;9.902;2022-10-26T21:32:32;14.20;99.90
9095;DHT22;4583;49.796;9.902;2022-10-26T21:42:34;14.00;99.90
9095;DHT22;4583;49.796;9.902;2022-10-26T21:52:36;13.90;99.90
9095;DHT22;4583;49.796;9.902;2022-10-26T22:02:37;13.90;99.90
9095;DHT22;4583;49.796;9.902;2022-10-26T22:12:39;13.80;99.90
9095;DHT22;4583;49.796;9.902;2022-10-26T22:22:41;13.70;99.90
9095;DHT22;4583;49.796;9.902;2022-10-26T22:32:42;13.60;99.90
9095;DHT22;4583;49.796;9.902;2022-10-26T22:42:44;13.50;99.90
9095;DHT22;4583;49.796;9.902;2022-10-26T22:52:46;13.40;99.90
9095;DHT22;4583;49.796;9.902;2022-10-26T23:02:47;13.30;99.90
9095;DHT22;4583;49.796;9.902;2022-10-26T23:12:49;13.20;99.90
9095;DHT22;4583;49.796;9.902;2022-10-26T23:22:52;13.20;99.90
9095;DHT22;4583;49.796;9.902;2022-10-26T23:32:54;13.10;99.90
9095;DHT22;4583;49.796;9.902;2022-10-26T23:42:56;12.90;99.90
9095;DHT22;4583;49.796;9.902;2022-10-26T23:52:58;12.90;99.90
